logo
Rechercher aéroport 
image banner adimage banner adimage banner ad
image banner ad

4CL6 - Pat Coyle Memorial

Situé à San Marcos, United States

ICAO - 4CL6, IATA -

Données fournies par Airmate  

Information générale

Coordonnées: N33°8'32" W117°8'44"
Élévation : 600 feet MSL.
Variation magnétique : 13° East
Voir autres Aéroports à California

Données opérationnelles

Special qualification required
Heure actuelle UTC:
Heure actuelle locale:
Météo à : KCRQ - Mc Clellan-Palomar ( 13 km )
METAR: KCRQ 011753Z 19004KT 10SM OVC022 20/14 A2989 RMK AO2 SLP118 T02000144 10200 20183 50005
TAF: KCRQ 011737Z 0118/0218 VRB03KT P6SM BKN020 FM011900 25009KT P6SM SCT025 TEMPO 0119/0120 BKN025 FM020200 VRB04KT P6SM BKN020
Voir NOTAMs / SUP AIP / TFR affectant cet aéroport [VIEW]
Fréquences de communication: [VIEW]

Pistes:

Coordonnées de l'aéroport

Adresse: San Marcos United States

Vue satellite de 4CL6